sensor_id;sensor_type;location;lat;lon;timestamp;P1;durP1;ratioP1;P2;durP2;ratioP2
21959;SDS011;11144;43.030;25.108;2023-02-28T00:00:08;19.48;;;9.70;;
21959;SDS011;11144;43.030;25.108;2023-02-28T00:01:43;15.35;;;9.68;;
21959;SDS011;11144;43.030;25.108;2023-02-28T00:03:16;16.42;;;10.40;;
21959;SDS011;11144;43.030;25.108;2023-02-28T00:04:50;16.92;;;9.70;;
21959;SDS011;11144;43.030;25.108;2023-02-28T00:06:24;14.23;;;8.70;;
21959;SDS011;11144;43.030;25.108;2023-02-28T00:07:57;19.17;;;11.15;;
21959;SDS011;11144;43.030;25.108;2023-02-28T00:09:31;17.38;;;9.65;;
21959;SDS011;11144;43.030;25.108;2023-02-28T00:11:06;19.20;;;10.50;;
21959;SDS011;11144;43.030;25.108;2023-02-28T00:12:42;16.80;;;10.15;;
21959;SDS011;11144;43.030;25.108;2023-02-28T00:14:15;23.33;;;11.15;;
21959;SDS011;11144;43.030;25.108;2023-02-28T00:15:58;23.35;;;12.48;;
21959;SDS011;11144;43.030;25.108;2023-02-28T00:17:32;20.33;;;10.88;;
21959;SDS011;11144;43.030;25.108;2023-02-28T00:19:05;20.35;;;11.15;;
21959;SDS011;11144;43.030;25.108;2023-02-28T00:20:39;18.73;;;10.40;;
21959;SDS011;11144;43.030;25.108;2023-02-28T00:22:11;19.13;;;11.43;;
21959;SDS011;11144;43.030;25.108;2023-02-28T00:23:45;18.05;;;10.70;;
21959;SDS011;11144;43.030;25.108;2023-02-28T00:25:21;19.13;;;10.77;;
21959;SDS011;11144;43.030;25.108;2023-02-28T00:26:55;17.73;;;9.65;;
21959;SDS011;11144;43.030;25.108;2023-02-28T00:28:28;17.23;;;10.32;;
21959;SDS011;11144;43.030;25.108;2023-02-28T00:30:03;16.45;;;10.90;;
21959;SDS011;11144;43.030;25.108;2023-02-28T00:31:38;17.95;;;10.48;;
21959;SDS011;11144;43.030;25.108;2023-02-28T00:33:11;19.77;;;11.43;;
21959;SDS011;11144;43.030;25.108;2023-02-28T00:34:45;24.13;;;11.90;;
21959;SDS011;11144;43.030;25.108;2023-02-28T00:36:18;17.63;;;11.07;;
21959;SDS011;11144;43.030;25.108;2023-02-28T00:37:52;18.33;;;10.80;;
21959;SDS011;11144;43.030;25.108;2023-02-28T00:39:25;25.70;;;10.70;;
21959;SDS011;11144;43.030;25.108;2023-02-28T00:41:01;18.67;;;11.10;;
21959;SDS011;11144;43.030;25.108;2023-02-28T00:42:36;16.48;;;10.40;;
21959;SDS011;11144;43.030;25.108;2023-02-28T00:44:10;20.83;;;10.73;;
21959;SDS011;11144;43.030;25.108;2023-02-28T00:45:43;17.50;;;11.10;;
21959;SDS011;11144;43.030;25.108;2023-02-28T00:47:16;19.10;;;11.27;;
21959;SDS011;11144;43.030;25.108;2023-02-28T00:48:50;21.65;;;11.93;;
21959;SDS011;11144;43.030;25.108;2023-02-28T00:50:24;19.20;;;11.70;;
21959;SDS011;11144;43.030;25.108;2023-02-28T00:51:57;20.13;;;11.35;;
21959;SDS011;11144;43.030;25.108;2023-02-28T00:53:30;23.67;;;12.15;;
21959;SDS011;11144;43.030;25.108;2023-02-28T00:55:05;20.40;;;11.57;;
21959;SDS011;11144;43.030;25.108;2023-02-28T00:56:40;22.35;;;12.38;;
21959;SDS011;11144;43.030;25.108;2023-02-28T00:58:13;21.80;;;12.25;;
21959;SDS011;11144;43.030;25.108;2023-02-28T00:59:47;21.67;;;12.50;;
21959;SDS011;11144;43.030;25.108;2023-02-28T01:01:20;26.50;;;15.55;;
21959;SDS011;11144;43.030;25.108;2023-02-28T01:02:54;22.40;;;12.05;;
21959;SDS011;11144;43.030;25.108;2023-02-28T01:04:26;21.88;;;12.00;;
21959;SDS011;11144;43.030;25.108;2023-02-28T01:06:00;20.63;;;10.90;;
21959;SDS011;11144;43.030;25.108;2023-02-28T01:07:33;24.77;;;12.85;;
21959;SDS011;11144;43.030;25.108;2023-02-28T01:09:06;24.77;;;13.05;;
21959;SDS011;11144;43.030;25.108;2023-02-28T01:10:40;23.65;;;13.23;;
21959;SDS011;11144;43.030;25.108;2023-02-28T01:12:15;33.85;;;16.33;;
21959;SDS011;11144;43.030;25.108;2023-02-28T01:13:51;26.77;;;14.35;;
21959;SDS011;11144;43.030;25.108;2023-02-28T01:15:25;19.27;;;11.30;;
21959;SDS011;11144;43.030;25.108;2023-02-28T01:16:58;23.50;;;11.48;;
21959;SDS011;11144;43.030;25.108;2023-02-28T01:18:31;25.00;;;13.57;;
21959;SDS011;11144;43.030;25.108;2023-02-28T01:20:06;20.15;;;11.05;;
21959;SDS011;11144;43.030;25.108;2023-02-28T01:21:41;23.75;;;12.70;;
21959;SDS011;11144;43.030;25.108;2023-02-28T01:23:16;19.38;;;11.50;;
21959;SDS011;11144;43.030;25.108;2023-02-28T01:24:51;22.00;;;11.80;;
21959;SDS011;11144;43.030;25.108;2023-02-28T01:26:24;26.90;;;15.30;;
21959;SDS011;11144;43.030;25.108;2023-02-28T01:27:59;29.60;;;14.43;;
21959;SDS011;11144;43.030;25.108;2023-02-28T01:29:32;25.10;;;14.73;;
21959;SDS011;11144;43.030;25.108;2023-02-28T01:31:06;23.25;;;13.18;;
21959;SDS011;11144;43.030;25.108;2023-02-28T01:32:41;21.63;;;12.07;;
21959;SDS011;11144;43.030;25.108;2023-02-28T01:34:15;26.52;;;13.52;;
21959;SDS011;11144;43.030;25.108;2023-02-28T01:35:56;22.13;;;12.77;;
21959;SDS011;11144;43.030;25.108;2023-02-28T01:37:30;23.08;;;12.10;;
21959;SDS011;11144;43.030;25.108;2023-02-28T01:39:03;21.00;;;12.50;;
21959;SDS011;11144;43.030;25.108;2023-02-28T01:40:37;21.85;;;11.85;;
21959;SDS011;11144;43.030;25.108;2023-02-28T01:42:09;22.85;;;12.45;;
21959;SDS011;11144;43.030;25.108;2023-02-28T01:45:40;22.48;;;11.88;;
21959;SDS011;11144;43.030;25.108;2023-02-28T01:47:12;21.13;;;12.55;;
21959;SDS011;11144;43.030;25.108;2023-02-28T01:48:47;20.50;;;12.38;;
21959;SDS011;11144;43.030;25.108;2023-02-28T01:50:25;19.63;;;12.20;;
21959;SDS011;11144;43.030;25.108;2023-02-28T01:52:02;22.65;;;11.35;;
21959;SDS011;11144;43.030;25.108;2023-02-28T01:53:37;20.50;;;11.77;;
21959;SDS011;11144;43.030;25.108;2023-02-28T01:55:19;20.48;;;11.98;;
21959;SDS011;11144;43.030;25.108;2023-02-28T01:56:54;22.33;;;11.40;;
21959;SDS011;11144;43.030;25.108;2023-02-28T01:58:32;20.40;;;11.75;;
21959;SDS011;11144;43.030;25.108;2023-02-28T02:00:08;22.23;;;11.25;;
21959;SDS011;11144;43.030;25.108;2023-02-28T02:01:44;17.45;;;11.02;;
21959;SDS011;11144;43.030;25.108;2023-02-28T02:03:18;18.42;;;11.50;;
21959;SDS011;11144;43.030;25.108;2023-02-28T02:04:54;20.92;;;11.40;;
21959;SDS011;11144;43.030;25.108;2023-02-28T02:06:33;20.08;;;11.07;;
21959;SDS011;11144;43.030;25.108;2023-02-28T02:08:12;17.38;;;10.18;;
21959;SDS011;11144;43.030;25.108;2023-02-28T02:09:46;15.85;;;9.45;;
21959;SDS011;11144;43.030;25.108;2023-02-28T02:11:20;15.65;;;9.68;;
21959;SDS011;11144;43.030;25.108;2023-02-28T02:13:13;17.67;;;9.77;;
21959;SDS011;11144;43.030;25.108;2023-02-28T02:15:03;16.75;;;10.35;;
21959;SDS011;11144;43.030;25.108;2023-02-28T02:16:47;19.90;;;10.65;;
21959;SDS011;11144;43.030;25.108;2023-02-28T02:18:34;16.95;;;10.93;;
21959;SDS011;11144;43.030;25.108;2023-02-28T02:20:24;18.10;;;10.82;;
21959;SDS011;11144;43.030;25.108;2023-02-28T02:24:58;17.48;;;10.45;;
21959;SDS011;11144;43.030;25.108;2023-02-28T02:26:57;22.58;;;11.25;;
21959;SDS011;11144;43.030;25.108;2023-02-28T02:28:52;19.85;;;11.27;;
21959;SDS011;11144;43.030;25.108;2023-02-28T02:30:44;20.77;;;10.80;;
21959;SDS011;11144;43.030;25.108;2023-02-28T02:34:55;21.20;;;11.30;;
21959;SDS011;11144;43.030;25.108;2023-02-28T02:36:35;20.58;;;11.60;;
21959;SDS011;11144;43.030;25.108;2023-02-28T02:38:15;29.83;;;12.15;;
21959;SDS011;11144;43.030;25.108;2023-02-28T02:39:57;25.98;;;13.00;;
21959;SDS011;11144;43.030;25.108;2023-02-28T02:41:38;27.38;;;13.65;;
21959;SDS011;11144;43.030;25.108;2023-02-28T02:43:19;24.60;;;12.07;;
21959;SDS011;11144;43.030;25.108;2023-02-28T02:45:00;21.15;;;11.25;;
21959;SDS011;11144;43.030;25.108;2023-02-28T02:46:38;20.42;;;12.02;;
21959;SDS011;11144;43.030;25.108;2023-02-28T02:48:15;32.83;;;15.90;;
21959;SDS011;11144;43.030;25.108;2023-02-28T02:49:55;31.42;;;15.35;;
21959;SDS011;11144;43.030;25.108;2023-02-28T02:51:36;21.38;;;13.13;;
21959;SDS011;11144;43.030;25.108;2023-02-28T02:53:10;18.52;;;11.00;;
21959;SDS011;11144;43.030;25.108;2023-02-28T02:54:46;19.70;;;11.38;;
21959;SDS011;11144;43.030;25.108;2023-02-28T02:56:23;22.58;;;12.05;;
21959;SDS011;11144;43.030;25.108;2023-02-28T02:58:01;21.88;;;13.63;;
21959;SDS011;11144;43.030;25.108;2023-02-28T02:59:37;23.35;;;12.90;;
21959;SDS011;11144;43.030;25.108;2023-02-28T03:01:12;19.58;;;10.50;;
21959;SDS011;11144;43.030;25.108;2023-02-28T03:02:50;20.27;;;12.93;;
21959;SDS011;11144;43.030;25.108;2023-02-28T03:04:27;24.00;;;14.20;;
21959;SDS011;11144;43.030;25.108;2023-02-28T03:06:06;23.83;;;13.93;;
21959;SDS011;11144;43.030;25.108;2023-02-28T03:07:40;21.25;;;11.95;;
21959;SDS011;11144;43.030;25.108;2023-02-28T03:09:14;28.52;;;13.60;;
21959;SDS011;11144;43.030;25.108;2023-02-28T03:10:50;25.90;;;12.80;;
21959;SDS011;11144;43.030;25.108;2023-02-28T03:12:27;27.33;;;13.77;;
21959;SDS011;11144;43.030;25.108;2023-02-28T03:14:21;36.05;;;19.52;;
21959;SDS011;11144;43.030;25.108;2023-02-28T03:16:07;30.40;;;14.75;;
21959;SDS011;11144;43.030;25.108;2023-02-28T03:17:58;30.60;;;16.13;;
21959;SDS011;11144;43.030;25.108;2023-02-28T03:19:45;27.05;;;15.32;;
21959;SDS011;11144;43.030;25.108;2023-02-28T03:21:34;31.38;;;14.88;;
21959;SDS011;11144;43.030;25.108;2023-02-28T03:23:13;31.60;;;15.60;;
21959;SDS011;11144;43.030;25.108;2023-02-28T03:24:52;26.73;;;15.10;;
21959;SDS011;11144;43.030;25.108;2023-02-28T03:26:33;31.52;;;15.82;;
21959;SDS011;11144;43.030;25.108;2023-02-28T03:28:11;29.50;;;15.48;;
21959;SDS011;11144;43.030;25.108;2023-02-28T03:29:50;28.00;;;15.23;;
21959;SDS011;11144;43.030;25.108;2023-02-28T03:31:30;25.42;;;14.43;;
21959;SDS011;11144;43.030;25.108;2023-02-28T03:33:07;25.88;;;14.93;;
21959;SDS011;11144;43.030;25.108;2023-02-28T03:34:46;30.75;;;14.50;;
21959;SDS011;11144;43.030;25.108;2023-02-28T03:36:29;28.20;;;14.18;;
21959;SDS011;11144;43.030;25.108;2023-02-28T03:38:07;28.80;;;14.93;;
21959;SDS011;11144;43.030;25.108;2023-02-28T03:39:46;28.00;;;15.63;;
21959;SDS011;11144;43.030;25.108;2023-02-28T03:41:25;27.05;;;14.75;;
21959;SDS011;11144;43.030;25.108;2023-02-28T03:43:04;28.33;;;14.52;;
21959;SDS011;11144;43.030;25.108;2023-02-28T03:44:45;28.50;;;15.52;;
21959;SDS011;11144;43.030;25.108;2023-02-28T03:46:25;28.60;;;15.35;;
21959;SDS011;11144;43.030;25.108;2023-02-28T03:48:02;35.25;;;16.92;;
21959;SDS011;11144;43.030;25.108;2023-02-28T03:49:43;28.98;;;14.48;;
21959;SDS011;11144;43.030;25.108;2023-02-28T03:51:22;28.73;;;15.27;;
21959;SDS011;11144;43.030;25.108;2023-02-28T03:52:58;26.75;;;15.55;;
21959;SDS011;11144;43.030;25.108;2023-02-28T03:54:39;33.35;;;16.17;;
21959;SDS011;11144;43.030;25.108;2023-02-28T03:56:17;31.05;;;15.82;;
21959;SDS011;11144;43.030;25.108;2023-02-28T03:57:55;31.30;;;15.82;;
21959;SDS011;11144;43.030;25.108;2023-02-28T03:59:34;27.63;;;15.95;;
21959;SDS011;11144;43.030;25.108;2023-02-28T04:01:13;29.65;;;16.45;;
21959;SDS011;11144;43.030;25.108;2023-02-28T04:02:51;34.97;;;17.50;;
21959;SDS011;11144;43.030;25.108;2023-02-28T04:04:26;31.33;;;17.67;;
21959;SDS011;11144;43.030;25.108;2023-02-28T04:05:59;30.30;;;17.67;;
21959;SDS011;11144;43.030;25.108;2023-02-28T04:07:33;42.78;;;23.65;;
21959;SDS011;11144;43.030;25.108;2023-02-28T04:09:08;51.20;;;26.85;;
21959;SDS011;11144;43.030;25.108;2023-02-28T04:10:43;50.80;;;28.77;;
21959;SDS011;11144;43.030;25.108;2023-02-28T04:12:22;36.30;;;20.05;;
21959;SDS011;11144;43.030;25.108;2023-02-28T04:13:56;25.27;;;13.80;;
21959;SDS011;11144;43.030;25.108;2023-02-28T04:15:29;30.48;;;16.70;;
21959;SDS011;11144;43.030;25.108;2023-02-28T04:17:03;34.80;;;17.50;;
21959;SDS011;11144;43.030;25.108;2023-02-28T04:18:37;32.70;;;16.88;;
21959;SDS011;11144;43.030;25.108;2023-02-28T04:20:12;31.23;;;15.85;;
21959;SDS011;11144;43.030;25.108;2023-02-28T04:21:47;34.83;;;16.92;;
21959;SDS011;11144;43.030;25.108;2023-02-28T04:23:21;36.28;;;19.25;;
21959;SDS011;11144;43.030;25.108;2023-02-28T04:24:55;43.33;;;22.10;;
21959;SDS011;11144;43.030;25.108;2023-02-28T04:26:29;59.45;;;32.15;;
21959;SDS011;11144;43.030;25.108;2023-02-28T04:28:04;43.05;;;23.33;;
21959;SDS011;11144;43.030;25.108;2023-02-28T04:29:37;44.95;;;22.90;;
21959;SDS011;11144;43.030;25.108;2023-02-28T04:31:11;40.38;;;20.73;;
21959;SDS011;11144;43.030;25.108;2023-02-28T04:32:44;38.20;;;20.73;;
21959;SDS011;11144;43.030;25.108;2023-02-28T04:34:18;40.47;;;20.75;;
21959;SDS011;11144;43.030;25.108;2023-02-28T04:35:59;43.33;;;21.65;;
21959;SDS011;11144;43.030;25.108;2023-02-28T04:37:34;32.92;;;17.33;;
21959;SDS011;11144;43.030;25.108;2023-02-28T04:39:08;38.63;;;19.58;;
21959;SDS011;11144;43.030;25.108;2023-02-28T04:40:42;34.90;;;19.45;;
21959;SDS011;11144;43.030;25.108;2023-02-28T04:42:17;34.05;;;18.67;;
21959;SDS011;11144;43.030;25.108;2023-02-28T04:43:50;36.35;;;18.40;;
21959;SDS011;11144;43.030;25.108;2023-02-28T04:45:24;34.72;;;17.90;;
21959;SDS011;11144;43.030;25.108;2023-02-28T04:47:02;41.08;;;22.25;;
21959;SDS011;11144;43.030;25.108;2023-02-28T04:48:36;38.88;;;22.55;;
21959;SDS011;11144;43.030;25.108;2023-02-28T04:50:10;44.22;;;24.25;;
21959;SDS011;11144;43.030;25.108;2023-02-28T04:51:43;44.42;;;23.70;;
21959;SDS011;11144;43.030;25.108;2023-02-28T04:53:17;33.22;;;18.42;;
21959;SDS011;11144;43.030;25.108;2023-02-28T04:54:51;31.42;;;16.33;;
21959;SDS011;11144;43.030;25.108;2023-02-28T04:56:24;33.03;;;16.13;;
21959;SDS011;11144;43.030;25.108;2023-02-28T04:57:59;33.75;;;16.60;;
21959;SDS011;11144;43.030;25.108;2023-02-28T04:59:32;30.75;;;14.02;;
21959;SDS011;11144;43.030;25.108;2023-02-28T05:01:06;29.00;;;15.65;;
21959;SDS011;11144;43.030;25.108;2023-02-28T05:02:49;29.42;;;14.52;;
21959;SDS011;11144;43.030;25.108;2023-02-28T05:04:22;32.08;;;15.70;;
21959;SDS011;11144;43.030;25.108;2023-02-28T05:05:55;32.63;;;16.38;;
21959;SDS011;11144;43.030;25.108;2023-02-28T05:07:27;28.50;;;14.88;;
21959;SDS011;11144;43.030;25.108;2023-02-28T05:09:01;31.58;;;15.55;;
21959;SDS011;11144;43.030;25.108;2023-02-28T05:10:35;33.17;;;16.17;;
21959;SDS011;11144;43.030;25.108;2023-02-28T05:12:09;32.47;;;17.48;;
21959;SDS011;11144;43.030;25.108;2023-02-28T05:13:44;33.17;;;16.08;;
21959;SDS011;11144;43.030;25.108;2023-02-28T05:15:18;24.15;;;13.80;;
21959;SDS011;11144;43.030;25.108;2023-02-28T05:16:51;30.05;;;13.93;;
21959;SDS011;11144;43.030;25.108;2023-02-28T05:18:25;37.55;;;15.68;;
21959;SDS011;11144;43.030;25.108;2023-02-28T05:19:58;31.50;;;16.52;;
21959;SDS011;11144;43.030;25.108;2023-02-28T05:21:49;31.70;;;15.75;;
21959;SDS011;11144;43.030;25.108;2023-02-28T05:23:24;30.15;;;15.10;;
21959;SDS011;11144;43.030;25.108;2023-02-28T05:24:58;34.20;;;17.00;;
21959;SDS011;11144;43.030;25.108;2023-02-28T05:26:34;34.53;;;17.23;;
21959;SDS011;11144;43.030;25.108;2023-02-28T05:28:07;29.65;;;15.02;;
21959;SDS011;11144;43.030;25.108;2023-02-28T05:29:42;30.80;;;15.77;;
21959;SDS011;11144;43.030;25.108;2023-02-28T05:31:16;32.65;;;16.45;;
21959;SDS011;11144;43.030;25.108;2023-02-28T05:32:50;31.42;;;15.38;;
21959;SDS011;11144;43.030;25.108;2023-02-28T05:34:24;36.63;;;17.92;;
21959;SDS011;11144;43.030;25.108;2023-02-28T05:35:57;35.42;;;17.48;;
21959;SDS011;11144;43.030;25.108;2023-02-28T05:37:30;30.95;;;14.10;;
21959;SDS011;11144;43.030;25.108;2023-02-28T05:39:02;23.42;;;11.63;;
21959;SDS011;11144;43.030;25.108;2023-02-28T05:40:38;21.63;;;10.32;;
21959;SDS011;11144;43.030;25.108;2023-02-28T05:42:12;23.08;;;10.65;;
21959;SDS011;11144;43.030;25.108;2023-02-28T05:43:45;20.25;;;10.93;;
21959;SDS011;11144;43.030;25.108;2023-02-28T05:45:21;18.25;;;9.77;;
21959;SDS011;11144;43.030;25.108;2023-02-28T05:46:54;21.63;;;11.25;;
21959;SDS011;11144;43.030;25.108;2023-02-28T05:48:27;17.83;;;9.10;;
21959;SDS011;11144;43.030;25.108;2023-02-28T05:49:59;17.08;;;7.65;;
21959;SDS011;11144;43.030;25.108;2023-02-28T05:51:33;12.88;;;7.65;;
21959;SDS011;11144;43.030;25.108;2023-02-28T05:53:08;14.88;;;7.82;;
21959;SDS011;11144;43.030;25.108;2023-02-28T05:54:42;14.10;;;7.57;;
21959;SDS011;11144;43.030;25.108;2023-02-28T05:56:15;15.18;;;8.00;;
21959;SDS011;11144;43.030;25.108;2023-02-28T05:57:48;17.88;;;9.40;;
21959;SDS011;11144;43.030;25.108;2023-02-28T05:59:22;17.80;;;7.78;;
21959;SDS011;11144;43.030;25.108;2023-02-28T06:00:56;14.05;;;7.03;;
21959;SDS011;11144;43.030;25.108;2023-02-28T06:02:30;11.20;;;6.00;;
21959;SDS011;11144;43.030;25.108;2023-02-28T06:04:04;16.23;;;7.65;;
21959;SDS011;11144;43.030;25.108;2023-02-28T06:05:49;16.80;;;8.63;;
21959;SDS011;11144;43.030;25.108;2023-02-28T06:07:23;11.18;;;6.38;;
21959;SDS011;11144;43.030;25.108;2023-02-28T06:08:56;15.63;;;7.47;;
21959;SDS011;11144;43.030;25.108;2023-02-28T06:10:29;16.33;;;8.13;;
21959;SDS011;11144;43.030;25.108;2023-02-28T06:12:03;18.05;;;8.70;;
21959;SDS011;11144;43.030;25.108;2023-02-28T06:13:38;10.98;;;5.10;;
21959;SDS011;11144;43.030;25.108;2023-02-28T06:15:12;17.80;;;8.00;;
21959;SDS011;11144;43.030;25.108;2023-02-28T06:16:48;18.60;;;10.90;;
21959;SDS011;11144;43.030;25.108;2023-02-28T06:18:21;36.10;;;16.10;;
21959;SDS011;11144;43.030;25.108;2023-02-28T06:19:54;46.03;;;20.67;;
21959;SDS011;11144;43.030;25.108;2023-02-28T06:21:28;21.83;;;10.93;;
21959;SDS011;11144;43.030;25.108;2023-02-28T06:23:02;22.80;;;11.45;;
21959;SDS011;11144;43.030;25.108;2023-02-28T06:24:36;20.52;;;10.35;;
21959;SDS011;11144;43.030;25.108;2023-02-28T06:26:09;11.93;;;6.55;;
21959;SDS011;11144;43.030;25.108;2023-02-28T06:27:43;13.60;;;7.07;;
21959;SDS011;11144;43.030;25.108;2023-02-28T06:29:16;13.93;;;7.28;;
21959;SDS011;11144;43.030;25.108;2023-02-28T06:30:50;18.85;;;8.80;;
21959;SDS011;11144;43.030;25.108;2023-02-28T06:32:25;14.43;;;6.65;;
21959;SDS011;11144;43.030;25.108;2023-02-28T06:33:59;14.98;;;7.55;;
21959;SDS011;11144;43.030;25.108;2023-02-28T06:35:31;21.38;;;9.57;;
21959;SDS011;11144;43.030;25.108;2023-02-28T06:37:04;16.08;;;9.88;;
21959;SDS011;11144;43.030;25.108;2023-02-28T06:38:38;15.57;;;8.82;;
21959;SDS011;11144;43.030;25.108;2023-02-28T06:40:12;16.17;;;8.48;;
21959;SDS011;11144;43.030;25.108;2023-02-28T06:41:46;15.55;;;8.45;;
21959;SDS011;11144;43.030;25.108;2023-02-28T06:43:27;11.88;;;5.25;;
21959;SDS011;11144;43.030;25.108;2023-02-28T06:45:01;11.82;;;5.03;;
21959;SDS011;11144;43.030;25.108;2023-02-28T06:46:40;16.65;;;9.25;;
21959;SDS011;11144;43.030;25.108;2023-02-28T06:48:16;20.17;;;11.18;;
21959;SDS011;11144;43.030;25.108;2023-02-28T06:49:50;15.57;;;8.48;;
21959;SDS011;11144;43.030;25.108;2023-02-28T06:51:24;15.32;;;8.50;;
21959;SDS011;11144;43.030;25.108;2023-02-28T06:52:58;18.90;;;9.25;;
21959;SDS011;11144;43.030;25.108;2023-02-28T06:54:32;10.10;;;6.22;;
21959;SDS011;11144;43.030;25.108;2023-02-28T06:56:05;14.55;;;5.57;;
21959;SDS011;11144;43.030;25.108;2023-02-28T06:57:40;10.60;;;5.78;;
21959;SDS011;11144;43.030;25.108;2023-02-28T06:59:13;17.90;;;9.50;;
21959;SDS011;11144;43.030;25.108;2023-02-28T07:00:50;13.05;;;7.43;;
21959;SDS011;11144;43.030;25.108;2023-02-28T07:02:23;12.85;;;6.30;;
21959;SDS011;11144;43.030;25.108;2023-02-28T07:03:58;15.50;;;9.55;;
21959;SDS011;11144;43.030;25.108;2023-02-28T07:05:34;21.60;;;9.30;;
21959;SDS011;11144;43.030;25.108;2023-02-28T07:07:07;14.40;;;8.07;;
21959;SDS011;11144;43.030;25.108;2023-02-28T07:08:41;14.23;;;8.15;;
21959;SDS011;11144;43.030;25.108;2023-02-28T07:10:14;15.07;;;7.93;;
21959;SDS011;11144;43.030;25.108;2023-02-28T07:11:50;14.73;;;8.43;;
21959;SDS011;11144;43.030;25.108;2023-02-28T07:13:24;16.27;;;7.50;;
21959;SDS011;11144;43.030;25.108;2023-02-28T07:14:57;15.35;;;8.45;;
21959;SDS011;11144;43.030;25.108;2023-02-28T07:16:31;11.07;;;6.45;;
21959;SDS011;11144;43.030;25.108;2023-02-28T07:18:04;14.50;;;8.80;;
21959;SDS011;11144;43.030;25.108;2023-02-28T07:19:39;13.57;;;7.78;;
21959;SDS011;11144;43.030;25.108;2023-02-28T07:21:19;12.93;;;7.53;;
21959;SDS011;11144;43.030;25.108;2023-02-28T07:22:59;13.13;;;7.57;;
21959;SDS011;11144;43.030;25.108;2023-02-28T07:24:45;13.93;;;7.53;;
21959;SDS011;11144;43.030;25.108;2023-02-28T07:26:26;13.95;;;8.23;;
21959;SDS011;11144;43.030;25.108;2023-02-28T07:28:00;15.65;;;8.57;;
21959;SDS011;11144;43.030;25.108;2023-02-28T07:29:34;11.50;;;5.75;;
21959;SDS011;11144;43.030;25.108;2023-02-28T07:31:09;12.88;;;7.90;;
21959;SDS011;11144;43.030;25.108;2023-02-28T07:32:44;16.42;;;7.40;;
21959;SDS011;11144;43.030;25.108;2023-02-28T07:34:17;16.20;;;8.30;;
21959;SDS011;11144;43.030;25.108;2023-02-28T07:36:01;13.05;;;7.95;;
21959;SDS011;11144;43.030;25.108;2023-02-28T07:37:58;11.82;;;7.10;;
21959;SDS011;11144;43.030;25.108;2023-02-28T07:39:32;7.95;;;4.40;;
21959;SDS011;11144;43.030;25.108;2023-02-28T07:41:05;14.38;;;7.18;;
21959;SDS011;11144;43.030;25.108;2023-02-28T07:42:39;12.55;;;7.53;;
21959;SDS011;11144;43.030;25.108;2023-02-28T07:44:13;14.15;;;8.23;;
21959;SDS011;11144;43.030;25.108;2023-02-28T07:45:47;12.68;;;7.15;;
21959;SDS011;11144;43.030;25.108;2023-02-28T07:47:20;12.85;;;6.00;;
21959;SDS011;11144;43.030;25.108;2023-02-28T07:48:56;11.07;;;6.53;;
21959;SDS011;11144;43.030;25.108;2023-02-28T07:50:31;11.93;;;6.85;;
21959;SDS011;11144;43.030;25.108;2023-02-28T07:52:08;11.00;;;5.72;;
21959;SDS011;11144;43.030;25.108;2023-02-28T07:53:42;15.65;;;7.78;;
21959;SDS011;11144;43.030;25.108;2023-02-28T07:55:16;11.77;;;6.70;;
21959;SDS011;11144;43.030;25.108;2023-02-28T07:56:50;13.48;;;7.75;;
21959;SDS011;11144;43.030;25.108;2023-02-28T07:58:23;14.32;;;6.68;;
21959;SDS011;11144;43.030;25.108;2023-02-28T07:59:57;15.00;;;7.00;;
21959;SDS011;11144;43.030;25.108;2023-02-28T08:01:41;18.55;;;7.75;;
21959;SDS011;11144;43.030;25.108;2023-02-28T08:03:17;18.95;;;8.15;;
21959;SDS011;11144;43.030;25.108;2023-02-28T08:04:50;26.08;;;11.65;;
21959;SDS011;11144;43.030;25.108;2023-02-28T08:06:24;31.17;;;10.93;;
21959;SDS011;11144;43.030;25.108;2023-02-28T08:07:59;30.55;;;10.02;;
21959;SDS011;11144;43.030;25.108;2023-02-28T08:09:33;27.27;;;12.02;;
21959;SDS011;11144;43.030;25.108;2023-02-28T08:11:07;15.85;;;7.90;;
21959;SDS011;11144;43.030;25.108;2023-02-28T08:12:40;32.65;;;12.85;;
21959;SDS011;11144;43.030;25.108;2023-02-28T08:14:14;25.05;;;11.60;;
21959;SDS011;11144;43.030;25.108;2023-02-28T08:15:48;20.42;;;9.57;;
21959;SDS011;11144;43.030;25.108;2023-02-28T08:17:21;15.80;;;6.55;;
21959;SDS011;11144;43.030;25.108;2023-02-28T08:18:54;15.98;;;6.85;;
21959;SDS011;11144;43.030;25.108;2023-02-28T08:20:27;17.55;;;7.22;;
21959;SDS011;11144;43.030;25.108;2023-02-28T08:22:01;14.45;;;7.85;;
21959;SDS011;11144;43.030;25.108;2023-02-28T08:23:36;17.90;;;9.85;;
21959;SDS011;11144;43.030;25.108;2023-02-28T08:25:10;15.23;;;7.72;;
21959;SDS011;11144;43.030;25.108;2023-02-28T08:26:43;9.98;;;6.35;;
21959;SDS011;11144;43.030;25.108;2023-02-28T08:28:17;19.63;;;10.50;;
21959;SDS011;11144;43.030;25.108;2023-02-28T08:29:50;15.70;;;8.98;;
21959;SDS011;11144;43.030;25.108;2023-02-28T08:31:23;16.23;;;9.70;;
21959;SDS011;11144;43.030;25.108;2023-02-28T08:32:57;23.15;;;9.50;;
21959;SDS011;11144;43.030;25.108;2023-02-28T08:34:31;14.02;;;7.40;;
21959;SDS011;11144;43.030;25.108;2023-02-28T08:36:05;13.57;;;7.30;;
21959;SDS011;11144;43.030;25.108;2023-02-28T08:37:39;12.35;;;6.25;;
21959;SDS011;11144;43.030;25.108;2023-02-28T08:39:14;16.73;;;8.82;;
21959;SDS011;11144;43.030;25.108;2023-02-28T08:40:48;16.73;;;7.53;;
21959;SDS011;11144;43.030;25.108;2023-02-28T08:42:21;20.58;;;10.55;;
21959;SDS011;11144;43.030;25.108;2023-02-28T08:43:54;20.90;;;9.23;;
21959;SDS011;11144;43.030;25.108;2023-02-28T08:45:27;17.88;;;8.35;;
21959;SDS011;11144;43.030;25.108;2023-02-28T08:47:01;14.65;;;7.97;;
21959;SDS011;11144;43.030;25.108;2023-02-28T08:48:35;18.88;;;9.32;;
21959;SDS011;11144;43.030;25.108;2023-02-28T08:50:09;16.58;;;8.68;;
21959;SDS011;11144;43.030;25.108;2023-02-28T08:51:44;23.48;;;10.13;;
21959;SDS011;11144;43.030;25.108;2023-02-28T08:53:18;18.38;;;10.00;;
21959;SDS011;11144;43.030;25.108;2023-02-28T08:55:20;17.30;;;7.10;;
21959;SDS011;11144;43.030;25.108;2023-02-28T08:57:00;16.52;;;8.63;;
21959;SDS011;11144;43.030;25.108;2023-02-28T08:59:00;13.18;;;7.22;;
21959;SDS011;11144;43.030;25.108;2023-02-28T09:01:06;13.65;;;7.80;;
21959;SDS011;11144;43.030;25.108;2023-02-28T09:02:47;14.40;;;7.03;;
21959;SDS011;11144;43.030;25.108;2023-02-28T09:04:33;11.30;;;5.68;;
21959;SDS011;11144;43.030;25.108;2023-02-28T09:06:20;17.40;;;7.68;;
21959;SDS011;11144;43.030;25.108;2023-02-28T09:08:08;15.85;;;8.55;;
21959;SDS011;11144;43.030;25.108;2023-02-28T09:10:01;17.77;;;10.07;;
21959;SDS011;11144;43.030;25.108;2023-02-28T09:11:43;18.85;;;9.55;;
21959;SDS011;11144;43.030;25.108;2023-02-28T09:13:43;16.80;;;9.15;;
21959;SDS011;11144;43.030;25.108;2023-02-28T09:15:24;22.52;;;13.77;;
21959;SDS011;11144;43.030;25.108;2023-02-28T09:17:32;18.95;;;11.05;;
21959;SDS011;11144;43.030;25.108;2023-02-28T09:19:32;24.58;;;13.80;;
21959;SDS011;11144;43.030;25.108;2023-02-28T09:21:32;21.63;;;12.07;;
21959;SDS011;11144;43.030;25.108;2023-02-28T09:23:13;28.00;;;14.75;;
21959;SDS011;11144;43.030;25.108;2023-02-28T09:25:05;37.30;;;18.85;;
21959;SDS011;11144;43.030;25.108;2023-02-28T09:26:54;26.20;;;14.30;;